createdAt,value
2023-03-24T00:01:13.628Z,1
2023-03-24T00:03:06.552Z,1
2023-03-24T00:05:06.440Z,1
2023-03-24T00:07:06.752Z,1
2023-03-24T00:09:10.308Z,1
2023-03-24T00:11:06.469Z,1
2023-03-24T00:13:06.388Z,1
2023-03-24T00:15:06.467Z,1
2023-03-24T00:17:06.518Z,1
2023-03-24T00:19:06.481Z,1
2023-03-24T00:21:13.573Z,1
2023-03-24T00:23:09.506Z,1
2023-03-24T00:25:06.439Z,1
2023-03-24T00:27:13.722Z,1
2023-03-24T00:29:06.538Z,1
2023-03-24T00:31:13.431Z,1
2023-03-24T00:33:06.701Z,1
2023-03-24T00:35:06.790Z,1
2023-03-24T00:37:06.662Z,1
2023-03-24T00:39:10.730Z,1
2023-03-24T00:41:06.356Z,1
2023-03-24T00:43:13.658Z,1
2023-03-24T00:45:13.057Z,1
2023-03-24T00:47:06.387Z,1
2023-03-24T00:49:06.528Z,1
2023-03-24T00:51:06.472Z,1
2023-03-24T00:53:13.883Z,1
2023-03-24T00:55:06.587Z,1
2023-03-24T00:57:06.625Z,1
2023-03-24T00:59:06.354Z,1
2023-03-24T01:01:13.640Z,1
2023-03-24T01:03:10.307Z,1
2023-03-24T01:05:06.534Z,1
2023-03-24T01:07:06.533Z,1
2023-03-24T01:09:09.618Z,1
2023-03-24T01:11:09.796Z,1
2023-03-24T01:13:06.353Z,1
2023-03-24T01:15:06.556Z,1
2023-03-24T01:17:06.426Z,1
2023-03-24T01:19:06.628Z,1
2023-03-24T01:21:09.812Z,1
2023-03-24T01:23:06.485Z,1
2023-03-24T01:25:06.485Z,1
2023-03-24T01:27:06.615Z,1
2023-03-24T01:29:06.505Z,1
2023-03-24T01:31:10.171Z,1
2023-03-24T01:33:06.505Z,1
2023-03-24T01:35:06.536Z,1
2023-03-24T01:37:09.835Z,1
2023-03-24T01:39:06.456Z,1
2023-03-24T01:41:06.559Z,1
2023-03-24T01:43:06.607Z,1
2023-03-24T01:45:06.771Z,1
2023-03-24T01:47:06.362Z,1
2023-03-24T01:49:06.752Z,1
2023-03-24T01:51:06.690Z,1
2023-03-24T01:53:06.728Z,1
2023-03-24T01:55:06.435Z,1
2023-03-24T01:57:06.740Z,1
2023-03-24T01:59:06.468Z,1
2023-03-24T02:01:06.474Z,1
2023-03-24T02:03:13.693Z,1
2023-03-24T02:05:06.360Z,1
2023-03-24T02:07:13.305Z,1
2023-03-24T02:09:06.455Z,1
2023-03-24T02:11:06.456Z,1
2023-03-24T02:13:06.714Z,1
2023-03-24T02:15:06.636Z,1
2023-03-24T02:17:06.707Z,1
2023-03-24T02:19:10.666Z,1
2023-03-24T02:21:06.744Z,1
2023-03-24T02:23:06.364Z,1
2023-03-24T02:25:06.353Z,1
2023-03-24T02:27:06.407Z,1
2023-03-24T02:29:13.703Z,1
2023-03-24T02:31:10.497Z,1
2023-03-24T02:33:09.750Z,1
2023-03-24T02:35:06.455Z,1
2023-03-24T02:37:10.475Z,1
2023-03-24T02:39:06.475Z,1
2023-03-24T02:41:06.704Z,1
2023-03-24T02:43:10.644Z,1
2023-03-24T02:45:10.157Z,1
2023-03-24T02:47:06.429Z,1
2023-03-24T02:49:06.567Z,1
2023-03-24T02:51:06.411Z,1
2023-03-24T02:53:06.353Z,1
2023-03-24T02:55:06.591Z,1
2023-03-24T02:57:06.769Z,1
2023-03-24T02:59:06.461Z,1
2023-03-24T03:01:09.872Z,1
2023-03-24T03:03:10.275Z,1
2023-03-24T03:05:06.363Z,1
2023-03-24T03:07:09.514Z,1
2023-03-24T03:09:06.461Z,1
2023-03-24T03:11:10.379Z,1
2023-03-24T03:13:09.811Z,1
2023-03-24T03:15:06.468Z,1
2023-03-24T03:17:06.544Z,1
2023-03-24T03:19:06.481Z,1
2023-03-24T03:21:06.765Z,1
2023-03-24T03:23:10.206Z,1
2023-03-24T03:27:07.057Z,1
2023-03-24T03:29:06.392Z,1
2023-03-24T03:31:06.515Z,1
2023-03-24T03:33:13.665Z,1
2023-03-24T03:35:06.366Z,1
2023-03-24T03:37:10.494Z,1
2023-03-24T03:39:06.394Z,1
2023-03-24T03:41:06.557Z,1
2023-03-24T03:43:10.179Z,1
2023-03-24T03:47:13.496Z,1
2023-03-24T03:51:13.450Z,1
2023-03-24T03:53:09.762Z,1
2023-03-24T03:55:06.551Z,1
2023-03-24T03:59:10.252Z,1
2023-03-24T04:01:06.525Z,1
2023-03-24T04:03:06.869Z,1
2023-03-24T04:05:13.602Z,1
2023-03-24T04:07:06.658Z,1
2023-03-24T04:09:14.088Z,1
2023-03-24T04:11:06.704Z,1
2023-03-24T04:13:06.479Z,1
2023-03-24T04:15:06.902Z,1
2023-03-24T04:17:06.722Z,1
2023-03-24T04:19:06.467Z,1
2023-03-24T04:21:13.580Z,1
2023-03-24T04:23:06.704Z,1
2023-03-24T04:25:10.011Z,1
2023-03-24T04:27:06.479Z,1
2023-03-24T04:29:06.456Z,1
2023-03-24T04:31:10.239Z,1
2023-03-24T04:33:06.574Z,0
2023-03-24T04:35:12.708Z,0
2023-03-24T04:37:10.141Z,0
2023-03-24T04:39:06.571Z,0.1
2023-03-24T04:41:06.473Z,0.1
2023-03-24T04:43:06.698Z,0.2
2023-03-24T04:45:06.491Z,0.3
2023-03-24T04:47:06.723Z,0.4
2023-03-24T04:49:06.546Z,0.6
2023-03-24T04:51:06.947Z,0.9
2023-03-24T04:53:06.849Z,1.2
2023-03-24T04:55:06.729Z,1.6
2023-03-24T04:57:07.102Z,2.3
2023-03-24T04:59:06.482Z,3.3
2023-03-24T05:01:06.530Z,4.3
2023-03-24T05:03:13.998Z,5.5
2023-03-24T05:05:09.576Z,7
2023-03-24T05:07:06.717Z,9
2023-03-24T05:09:06.727Z,11.6
2023-03-24T05:11:06.742Z,14.2
2023-03-24T05:13:06.519Z,16.4
2023-03-24T05:15:06.652Z,19.1
2023-03-24T05:17:10.504Z,23.3
2023-03-24T05:19:06.746Z,28.5
2023-03-24T05:21:06.827Z,31.5
2023-03-24T05:23:06.636Z,34.8
2023-03-24T05:25:06.760Z,38.5
2023-03-24T05:27:06.929Z,42.5
2023-03-24T05:29:13.700Z,47
2023-03-24T05:31:06.485Z,54.6
2023-03-24T05:33:06.615Z,63.4
2023-03-24T05:35:06.622Z,81.5
2023-03-24T05:37:06.436Z,99.5
2023-03-24T05:39:10.135Z,109.9
2023-03-24T05:41:06.724Z,115.6
2023-03-24T05:43:06.465Z,134.3
2023-03-24T05:45:06.910Z,181.3
2023-03-24T05:47:10.042Z,210.6
2023-03-24T05:49:06.645Z,221.4
2023-03-24T05:51:06.523Z,232.8
2023-03-24T05:53:13.636Z,221.4
2023-03-24T05:55:06.507Z,221.4
2023-03-24T05:57:06.547Z,244.7
2023-03-24T05:59:06.601Z,284.3
2023-03-24T06:01:06.752Z,298.9
2023-03-24T06:03:06.691Z,347.2
2023-03-24T06:05:06.604Z,383.8
2023-03-24T06:07:06.461Z,403.4
2023-03-24T06:09:06.686Z,383.8
2023-03-24T06:11:06.964Z,383.8
2023-03-24T06:13:09.976Z,403.4
2023-03-24T06:15:06.872Z,445.9
2023-03-24T06:17:06.455Z,468.7
2023-03-24T06:19:06.562Z,544.6
2023-03-24T06:21:06.918Z,632.7
2023-03-24T06:23:06.722Z,699.2
2023-03-24T06:27:06.484Z,735.1
2023-03-24T06:29:06.619Z,735.1
2023-03-24T06:31:09.977Z,772.8
2023-03-24T06:33:10.247Z,735.1
2023-03-24T06:35:09.933Z,665.1
2023-03-24T06:37:06.605Z,632.7
2023-03-24T06:39:06.512Z,665.1
2023-03-24T06:41:06.769Z,699.2
2023-03-24T06:43:06.755Z,772.8
2023-03-24T06:45:10.595Z,699.2
2023-03-24T06:47:06.619Z,601.8
2023-03-24T06:49:06.740Z,601.8
2023-03-24T06:51:06.627Z,632.7
2023-03-24T06:53:09.588Z,699.2
2023-03-24T06:55:06.562Z,665.1
2023-03-24T06:57:06.793Z,665.1
2023-03-24T06:59:06.647Z,699.2
2023-03-24T07:01:06.617Z,772.8
2023-03-24T07:03:10.605Z,735.1
2023-03-24T07:05:06.476Z,665.1
2023-03-24T07:07:28.246Z,601.8
2023-03-24T07:09:06.741Z,572.5
2023-03-24T07:11:06.671Z,544.6
2023-03-24T07:13:09.839Z,544.6
2023-03-24T07:15:10.582Z,601.8
2023-03-24T07:17:06.636Z,665.1
2023-03-24T07:19:06.649Z,735.1
2023-03-24T07:21:06.686Z,699.2
2023-03-24T07:23:13.501Z,699.2
2023-03-24T07:25:06.566Z,772.8
2023-03-24T07:27:10.596Z,854.1
2023-03-24T07:29:06.686Z,943.9
2023-03-24T07:31:13.977Z,1152.9
2023-03-24T07:33:06.660Z,1339.4
2023-03-24T07:35:06.891Z,1480.3
2023-03-24T07:37:06.833Z,1480.3
2023-03-24T07:39:06.686Z,1480.3
2023-03-24T07:41:06.764Z,1408.1
2023-03-24T07:43:10.166Z,1408.1
2023-03-24T07:45:13.652Z,1339.4
2023-03-24T07:47:06.551Z,1152.9
2023-03-24T07:49:16.394Z,992.3
2023-03-24T07:51:06.751Z,943.9
2023-03-24T07:53:06.756Z,897.8
2023-03-24T07:55:07.203Z,854.1
2023-03-24T07:57:11.154Z,854.1
2023-03-24T07:59:06.804Z,897.8
2023-03-24T08:01:09.766Z,992.3
2023-03-24T08:03:06.585Z,1212
2023-03-24T08:05:06.593Z,1408.1
2023-03-24T08:07:06.465Z,1636
2023-03-24T08:09:06.696Z,1900.7
2023-03-24T08:11:10.564Z,1808
2023-03-24T08:13:06.463Z,1719.9
2023-03-24T08:15:06.795Z,1808
2023-03-24T08:17:06.890Z,1636
2023-03-24T08:19:06.768Z,1556.2
2023-03-24T08:21:10.065Z,1636
2023-03-24T08:23:06.704Z,1636
2023-03-24T08:25:06.469Z,1408.1
2023-03-24T08:27:06.511Z,1480.3
2023-03-24T08:29:06.744Z,1636
2023-03-24T08:31:06.650Z,1900.7
2023-03-24T08:33:06.676Z,1808
2023-03-24T08:35:06.739Z,1556.2
2023-03-24T08:37:06.493Z,1408.1
2023-03-24T08:39:06.778Z,1274.1
2023-03-24T08:41:06.615Z,1152.9
2023-03-24T08:43:10.614Z,1096.6
2023-03-24T08:45:10.165Z,1096.6
2023-03-24T08:47:12.729Z,1274.1
2023-03-24T08:49:10.100Z,1339.4
2023-03-24T08:51:06.778Z,1339.4
2023-03-24T08:53:09.817Z,1274.1
2023-03-24T08:55:10.714Z,1274.1
2023-03-24T08:57:06.562Z,1339.4
2023-03-24T08:59:06.658Z,1556.2
2023-03-24T09:01:06.904Z,1719.9
2023-03-24T09:03:06.765Z,1636
2023-03-24T09:05:06.623Z,1636
2023-03-24T09:07:06.498Z,1808
2023-03-24T09:09:13.767Z,1998.2
2023-03-24T09:11:06.484Z,1998.2
2023-03-24T09:15:06.839Z,1808
2023-03-24T09:17:09.844Z,1900.7
2023-03-24T09:19:13.733Z,1719.9
2023-03-24T09:21:06.523Z,1719.9
2023-03-24T09:23:06.493Z,1808
2023-03-24T09:25:06.696Z,1808
2023-03-24T09:27:06.541Z,1900.7
2023-03-24T09:29:07.047Z,1900.7
2023-03-24T09:31:06.826Z,1998.2
2023-03-24T09:33:09.964Z,1998.2
2023-03-24T09:35:06.495Z,2208.3
2023-03-24T09:37:06.660Z,2208.3
2023-03-24T09:39:06.850Z,1998.2
2023-03-24T09:41:09.994Z,1998.2
2023-03-24T09:43:06.715Z,1998.2
2023-03-24T09:45:06.908Z,1998.2
2023-03-24T09:47:06.773Z,1998.2
2023-03-24T09:51:06.693Z,1998.2
2023-03-24T09:53:10.604Z,1900.7
2023-03-24T09:55:13.893Z,1808
2023-03-24T09:57:06.566Z,1900.7
2023-03-24T09:59:13.588Z,1998.2
2023-03-24T10:01:06.509Z,2208.3
2023-03-24T10:03:06.760Z,2321.6
2023-03-24T10:05:09.874Z,2321.6
2023-03-24T10:07:06.466Z,2440.6
2023-03-24T10:09:06.501Z,2697.3
2023-03-24T10:11:06.893Z,2835.6
2023-03-24T10:13:06.864Z,2835.6
2023-03-24T10:15:06.511Z,2835.6
2023-03-24T10:17:06.503Z,2981
2023-03-24T10:19:06.903Z,2981
2023-03-24T10:21:06.505Z,2981
2023-03-24T10:25:06.492Z,2981
2023-03-24T10:27:06.566Z,2981
2023-03-24T10:29:09.968Z,2981
2023-03-24T10:33:09.997Z,2981
2023-03-24T10:35:06.496Z,3133.8
2023-03-24T10:37:06.476Z,3463.4
2023-03-24T10:39:16.513Z,3463.4
2023-03-24T10:41:13.604Z,3463.4
2023-03-24T10:43:10.187Z,3463.4
2023-03-24T10:45:06.537Z,3641
2023-03-24T10:47:10.556Z,3641
2023-03-24T10:49:06.515Z,4023.9
2023-03-24T10:51:06.781Z,4675.1
2023-03-24T10:53:06.607Z,5166.8
2023-03-24T10:55:10.649Z,6002.9
2023-03-24T10:57:06.587Z,6634.2
2023-03-24T10:59:06.502Z,6634.2
2023-03-24T11:01:13.406Z,6974.4
2023-03-24T11:03:06.880Z,8518.5
2023-03-24T11:05:06.766Z,10938
2023-03-24T11:07:10.631Z,12708.2
2023-03-24T11:09:06.564Z,10404.6
2023-03-24T11:11:06.502Z,8955.3
2023-03-24T11:13:06.646Z,9897.1
2023-03-24T11:15:17.865Z,10404.6
2023-03-24T11:17:06.605Z,12708.2
2023-03-24T11:19:06.468Z,14044.7
2023-03-24T11:21:06.797Z,15521.8
2023-03-24T11:23:06.571Z,15521.8
2023-03-24T11:25:09.849Z,16317.6
2023-03-24T11:27:10.523Z,15521.8
2023-03-24T11:29:06.742Z,16317.6
2023-03-24T11:31:06.703Z,16317.6
2023-03-24T11:33:06.688Z,16317.6
2023-03-24T11:35:10.590Z,16317.6
2023-03-24T11:37:10.333Z,15521.8
2023-03-24T11:39:06.536Z,13359.7
2023-03-24T11:41:06.586Z,10404.6
2023-03-24T11:43:10.554Z,7332
2023-03-24T11:45:06.513Z,6002.9
2023-03-24T11:47:06.892Z,5166.8
2023-03-24T11:49:06.536Z,5166.8
2023-03-24T11:51:13.549Z,5166.8
2023-03-24T11:53:06.507Z,5166.8
2023-03-24T11:55:06.820Z,4914.8
2023-03-24T11:57:10.228Z,5166.8
2023-03-24T11:59:13.830Z,5166.8
2023-03-24T12:01:06.599Z,5166.8
2023-03-24T12:03:06.637Z,5166.8
2023-03-24T12:05:10.579Z,5710.1
2023-03-24T12:07:06.646Z,5710.1
2023-03-24T12:09:06.778Z,5431.7
2023-03-24T12:11:06.508Z,4675.1
2023-03-24T12:13:06.514Z,4023.9
2023-03-24T12:17:06.693Z,3641
2023-03-24T12:19:06.508Z,4447.1
2023-03-24T12:21:06.626Z,4675.1
2023-03-24T12:23:13.670Z,4914.8
2023-03-24T12:25:10.491Z,4675.1
2023-03-24T12:27:09.922Z,4447.1
2023-03-24T12:29:06.525Z,5166.8
2023-03-24T12:31:06.555Z,6634.2
2023-03-24T12:33:09.672Z,9414.4
2023-03-24T12:35:06.655Z,12708.2
2023-03-24T12:37:06.587Z,14764.8
2023-03-24T12:39:10.555Z,12708.2
2023-03-24T12:41:06.502Z,11498.8
2023-03-24T12:43:09.798Z,9414.4
2023-03-24T12:45:06.591Z,7332
2023-03-24T12:47:06.504Z,6002.9
2023-03-24T12:49:10.065Z,5166.8
2023-03-24T12:51:13.560Z,5431.7
2023-03-24T12:53:07.961Z,4675.1
2023-03-24T12:55:06.986Z,4230.2
2023-03-24T12:57:06.842Z,4023.9
2023-03-24T12:59:10.636Z,3827.6
2023-03-24T13:01:06.541Z,3463.4
2023-03-24T13:03:06.929Z,3641
2023-03-24T13:05:10.217Z,4675.1
2023-03-24T13:07:06.568Z,5710.1
2023-03-24T13:11:06.618Z,6974.4
2023-03-24T13:13:06.752Z,5710.1
2023-03-24T13:17:06.502Z,6310.7
2023-03-24T13:19:06.898Z,6002.9
2023-03-24T13:21:06.551Z,6310.7
2023-03-24T13:23:06.755Z,6634.2
2023-03-24T13:25:06.951Z,6310.7
2023-03-24T13:27:06.561Z,6002.9
2023-03-24T13:29:06.721Z,6002.9
2023-03-24T13:31:10.622Z,6310.7
2023-03-24T13:33:13.942Z,6310.7
2023-03-24T13:35:06.617Z,6310.7
2023-03-24T13:37:06.503Z,5710.1
2023-03-24T13:39:06.568Z,5431.7
2023-03-24T13:43:09.841Z,4447.1
2023-03-24T13:45:06.549Z,4023.9
2023-03-24T13:47:10.074Z,3641
2023-03-24T13:49:06.708Z,3463.4
2023-03-24T13:51:06.774Z,3294.5
2023-03-24T13:53:06.730Z,3641
2023-03-24T13:55:13.797Z,3827.6
2023-03-24T13:59:13.546Z,3294.5
2023-03-24T14:01:06.527Z,2981
2023-03-24T14:03:10.073Z,2835.6
2023-03-24T14:05:06.635Z,2835.6
2023-03-24T14:07:06.509Z,2835.6
2023-03-24T14:09:10.507Z,2981
2023-03-24T14:11:06.515Z,3294.5
2023-03-24T14:13:06.854Z,3463.4
2023-03-24T14:15:06.686Z,3294.5
2023-03-24T14:17:13.509Z,3133.8
2023-03-24T14:19:06.608Z,2981
2023-03-24T14:21:06.559Z,3133.8
2023-03-24T14:23:06.520Z,3463.4
2023-03-24T14:25:06.541Z,4447.1
2023-03-24T14:27:13.739Z,5710.1
2023-03-24T14:29:06.530Z,6634.2
2023-03-24T14:31:06.541Z,7707.9
2023-03-24T14:33:13.632Z,7707.9
2023-03-24T14:35:06.909Z,6974.4
2023-03-24T14:37:06.524Z,6310.7
2023-03-24T14:39:06.549Z,6310.7
2023-03-24T14:41:06.505Z,6310.7
2023-03-24T14:43:06.846Z,6002.9
2023-03-24T14:45:13.839Z,5431.7
2023-03-24T14:47:06.609Z,4914.8
2023-03-24T14:49:06.826Z,4447.1
2023-03-24T14:51:06.560Z,3827.6
2023-03-24T14:53:06.594Z,3463.4
2023-03-24T14:55:10.709Z,2981
2023-03-24T14:57:09.716Z,2440.6
2023-03-24T14:59:06.612Z,2208.3
2023-03-24T15:01:07.830Z,2100.6
2023-03-24T15:03:13.797Z,1900.7
2023-03-24T15:05:06.522Z,1808
2023-03-24T15:07:10.557Z,1636
2023-03-24T15:09:06.707Z,1556.2
2023-03-24T15:11:13.752Z,1556.2
2023-03-24T15:13:13.474Z,1556.2
2023-03-24T15:17:06.620Z,1480.3
2023-03-24T15:19:06.522Z,1480.3
2023-03-24T15:21:06.565Z,1408.1
2023-03-24T15:23:06.524Z,1212
2023-03-24T15:25:10.681Z,1043.1
2023-03-24T15:27:06.819Z,943.9
2023-03-24T15:29:06.789Z,1043.1
2023-03-24T15:31:06.733Z,1274.1
2023-03-24T15:33:06.624Z,1408.1
2023-03-24T15:35:10.737Z,1480.3
2023-03-24T15:37:09.653Z,1480.3
2023-03-24T15:39:06.553Z,1408.1
2023-03-24T15:41:06.526Z,1212
2023-03-24T15:43:06.721Z,992.3
2023-03-24T15:45:06.614Z,897.8
2023-03-24T15:47:10.539Z,854.1
2023-03-24T15:49:10.465Z,699.2
2023-03-24T15:51:06.705Z,601.8
2023-03-24T15:53:06.537Z,544.6
2023-03-24T15:55:06.515Z,544.6
2023-03-24T15:57:07.012Z,572.5
2023-03-24T15:59:09.682Z,544.6
2023-03-24T16:01:10.470Z,492.7
2023-03-24T16:03:13.758Z,518
2023-03-24T16:07:06.526Z,812.4
2023-03-24T16:09:06.711Z,992.3
2023-03-24T16:13:06.732Z,1480.3
2023-03-24T16:15:07.016Z,1636
2023-03-24T16:17:06.578Z,1556.2
2023-03-24T16:19:10.189Z,1480.3
2023-03-24T16:21:06.693Z,1339.4
2023-03-24T16:23:10.286Z,1274.1
2023-03-24T16:25:06.854Z,1212
2023-03-24T16:27:09.702Z,1212
2023-03-24T16:29:10.662Z,1274.1
2023-03-24T16:31:06.583Z,1152.9
2023-03-24T16:33:06.686Z,992.3
2023-03-24T16:35:06.694Z,812.4
2023-03-24T16:37:06.582Z,665.1
2023-03-24T16:39:06.557Z,632.7
2023-03-24T16:41:06.817Z,665.1
2023-03-24T16:43:06.829Z,735.1
2023-03-24T16:45:06.976Z,772.8
2023-03-24T16:47:09.959Z,812.4
2023-03-24T16:49:06.828Z,772.8
2023-03-24T16:51:10.709Z,665.1
2023-03-24T16:53:10.556Z,572.5
2023-03-24T16:55:06.555Z,518
2023-03-24T16:57:06.675Z,468.7
2023-03-24T16:59:06.555Z,445.9
2023-03-24T17:01:06.982Z,424.1
2023-03-24T17:03:10.190Z,383.8
2023-03-24T17:05:06.666Z,330.3
2023-03-24T17:07:06.675Z,257.2
2023-03-24T17:09:06.997Z,221.4
2023-03-24T17:11:07.074Z,200.3
2023-03-24T17:13:06.732Z,148.4
2023-03-24T17:15:10.138Z,127.7
2023-03-24T17:17:13.699Z,148.4
2023-03-24T17:19:10.430Z,127.7
2023-03-24T17:21:13.754Z,104.6
2023-03-24T17:23:10.517Z,85.6
2023-03-24T17:25:09.742Z,81.5
2023-03-24T17:27:10.537Z,73.7
2023-03-24T17:29:06.549Z,70.1
2023-03-24T17:31:06.946Z,60.3
2023-03-24T17:33:10.146Z,49.4
2023-03-24T17:35:06.552Z,47
2023-03-24T17:37:06.950Z,42.5
2023-03-24T17:39:10.601Z,31.5
2023-03-24T17:41:06.625Z,20.1
2023-03-24T17:43:10.089Z,12.2
2023-03-24T17:45:06.751Z,9.5
2023-03-24T17:47:06.555Z,7.4
2023-03-24T17:49:06.887Z,5.8
2023-03-24T17:51:10.134Z,4.7
2023-03-24T17:53:06.745Z,3.7
2023-03-24T17:55:06.543Z,2.7
2023-03-24T17:57:06.834Z,1.7
2023-03-24T17:59:06.541Z,1.1
2023-03-24T18:01:08.277Z,0.7
2023-03-24T18:03:07.019Z,0.4
2023-03-24T18:05:07.017Z,0.4
2023-03-24T18:07:06.708Z,0.3
2023-03-24T18:09:06.977Z,0.3
2023-03-24T18:11:06.970Z,0.2
2023-03-24T18:13:06.543Z,0.1
2023-03-24T18:15:13.846Z,0.1
2023-03-24T18:17:13.449Z,0.1
2023-03-24T18:19:06.728Z,0
2023-03-24T18:23:06.583Z,0
2023-03-24T18:25:10.142Z,0
2023-03-24T18:27:06.612Z,0
2023-03-24T18:29:06.761Z,1
2023-03-24T18:31:06.769Z,1
2023-03-24T18:33:06.673Z,1
2023-03-24T18:35:06.975Z,1
2023-03-24T18:37:06.677Z,1
2023-03-24T18:39:06.798Z,1
2023-03-24T18:41:06.848Z,1
2023-03-24T18:43:10.658Z,1
2023-03-24T18:45:06.891Z,1
2023-03-24T18:47:06.860Z,1
2023-03-24T18:49:06.944Z,1
2023-03-24T18:51:10.720Z,1
2023-03-24T18:53:06.573Z,1
2023-03-24T18:55:06.743Z,1
2023-03-24T18:57:06.647Z,1
2023-03-24T18:59:06.658Z,1
2023-03-24T19:01:06.818Z,1
2023-03-24T19:03:14.026Z,1
2023-03-24T19:05:10.154Z,1
2023-03-24T19:07:10.185Z,1
2023-03-24T19:09:06.637Z,1
2023-03-24T19:11:06.817Z,1
2023-03-24T19:13:06.839Z,1
2023-03-24T19:15:06.635Z,1
2023-03-24T19:17:09.821Z,1
2023-03-24T19:19:07.072Z,1
2023-03-24T19:21:07.117Z,1
2023-03-24T19:23:10.572Z,1
2023-03-24T19:25:06.610Z,1
2023-03-24T19:27:07.062Z,1
2023-03-24T19:31:09.974Z,1
2023-03-24T19:33:06.796Z,1
2023-03-24T19:35:10.647Z,1
2023-03-24T19:37:06.790Z,1
2023-03-24T19:39:10.601Z,1
2023-03-24T19:41:06.607Z,1
2023-03-24T19:43:06.753Z,1
2023-03-24T19:45:06.716Z,1
2023-03-24T19:47:06.595Z,1
2023-03-24T19:49:06.615Z,1
2023-03-24T19:51:14.068Z,1
2023-03-24T19:53:06.704Z,1
2023-03-24T19:55:14.322Z,1
2023-03-24T19:57:07.009Z,1
2023-03-24T19:59:06.712Z,1
2023-03-24T20:01:06.809Z,1
2023-03-24T20:05:10.433Z,1
2023-03-24T20:07:06.631Z,1
2023-03-24T20:09:06.619Z,1
2023-03-24T20:11:10.650Z,1
2023-03-24T20:13:06.795Z,1
2023-03-24T20:15:06.890Z,1
2023-03-24T20:17:06.877Z,1
2023-03-24T20:19:06.773Z,1
2023-03-24T20:21:13.930Z,1
2023-03-24T20:23:10.201Z,1
2023-03-24T20:25:06.780Z,1
2023-03-24T20:27:07.024Z,1
2023-03-24T20:29:06.670Z,1
2023-03-24T20:31:13.885Z,1
2023-03-24T20:33:07.060Z,1
2023-03-24T20:37:07.027Z,1
2023-03-24T20:39:10.681Z,1
2023-03-24T20:41:13.953Z,1
2023-03-24T20:43:06.833Z,1
2023-03-24T20:45:06.722Z,1
2023-03-24T20:47:10.137Z,1
2023-03-24T20:49:06.639Z,1
2023-03-24T20:51:10.434Z,1
2023-03-24T20:53:06.808Z,1
2023-03-24T20:55:06.860Z,1
2023-03-24T20:57:10.712Z,1
2023-03-24T20:59:06.596Z,1
2023-03-24T21:01:06.718Z,1
2023-03-24T21:03:06.729Z,1
2023-03-24T21:05:09.934Z,1
2023-03-24T21:07:06.900Z,1
2023-03-24T21:09:06.644Z,1
2023-03-24T21:11:06.705Z,1
2023-03-24T21:13:13.931Z,1
2023-03-24T21:15:06.675Z,1
2023-03-24T21:17:06.813Z,1
2023-03-24T21:19:06.887Z,1
2023-03-24T21:21:06.999Z,1
2023-03-24T21:23:13.830Z,1
2023-03-24T21:25:07.111Z,1
2023-03-24T21:27:06.704Z,1
2023-03-24T21:29:06.838Z,1
2023-03-24T21:31:06.835Z,1
2023-03-24T21:33:06.975Z,1
2023-03-24T21:35:13.772Z,1
2023-03-24T21:37:06.745Z,1
2023-03-24T21:39:06.639Z,1
2023-03-24T21:41:07.012Z,1
2023-03-24T21:43:07.013Z,1
2023-03-24T21:45:13.811Z,1
2023-03-24T21:47:06.676Z,1
2023-03-24T21:49:10.747Z,1
2023-03-24T21:51:06.914Z,1
2023-03-24T21:55:06.842Z,1
2023-03-24T21:57:06.793Z,1
2023-03-24T21:59:13.980Z,1
2023-03-24T22:01:06.773Z,1
2023-03-24T22:03:06.963Z,1
2023-03-24T22:05:06.892Z,1
2023-03-24T22:07:10.200Z,1
2023-03-24T22:09:06.897Z,1
2023-03-24T22:11:06.783Z,1
2023-03-24T22:13:07.031Z,1
2023-03-24T22:15:06.892Z,1
2023-03-24T22:17:10.180Z,1
2023-03-24T22:19:06.608Z,1
2023-03-24T22:21:06.940Z,1
2023-03-24T22:23:10.405Z,1
2023-03-24T22:25:10.476Z,1
2023-03-24T22:27:06.621Z,1
2023-03-24T22:29:06.929Z,1
2023-03-24T22:31:06.764Z,1
2023-03-24T22:33:06.878Z,1
2023-03-24T22:35:14.605Z,1
2023-03-24T22:37:06.685Z,1
2023-03-24T22:39:07.041Z,1
2023-03-24T22:41:06.866Z,1
2023-03-24T22:43:06.596Z,1
2023-03-24T22:45:06.639Z,1
2023-03-24T22:47:06.728Z,1
2023-03-24T22:49:06.611Z,1
2023-03-24T22:51:06.928Z,1
2023-03-24T22:53:06.992Z,1
2023-03-24T22:55:06.741Z,1
2023-03-24T22:57:10.266Z,1
2023-03-24T22:59:06.593Z,1
2023-03-24T23:01:09.707Z,1
2023-03-24T23:03:06.641Z,1
2023-03-24T23:07:06.616Z,1
2023-03-24T23:09:06.887Z,1
2023-03-24T23:11:09.876Z,1
2023-03-24T23:13:06.754Z,1
2023-03-24T23:15:06.737Z,1
2023-03-24T23:17:06.584Z,1
2023-03-24T23:21:10.579Z,1
2023-03-24T23:23:07.151Z,1
2023-03-24T23:25:06.614Z,1
2023-03-24T23:27:13.601Z,1
2023-03-24T23:29:06.734Z,1
2023-03-24T23:31:10.009Z,1
2023-03-24T23:33:06.946Z,1
2023-03-24T23:35:06.630Z,1
2023-03-24T23:37:10.489Z,1
2023-03-24T23:39:06.638Z,1
2023-03-24T23:41:06.607Z,1
2023-03-24T23:43:06.740Z,1
2023-03-24T23:45:06.736Z,1
2023-03-24T23:47:06.628Z,1
2023-03-24T23:49:06.599Z,1
2023-03-24T23:51:06.640Z,1
2023-03-24T23:53:13.392Z,1
2023-03-24T23:55:06.873Z,1
2023-03-24T23:57:06.665Z,1
2023-03-24T23:59:06.692Z,1
